sensor_id;sensor_type;location;lat;lon;timestamp;pressure;altitude;pressure_sealevel;temperature;humidity
75747;BME280;70632;52.232;21.038;2023-12-14T00:00:28;99225.69;;;3.27;85.14
75747;BME280;70632;52.232;21.038;2023-12-14T00:03:14;99233.19;;;3.22;85.18
75747;BME280;70632;52.232;21.038;2023-12-14T00:05:40;99235.22;;;3.18;85.06
75747;BME280;70632;52.232;21.038;2023-12-14T00:08:05;99233.38;;;3.19;85.12
75747;BME280;70632;52.232;21.038;2023-12-14T00:10:31;99240.47;;;3.20;85.59
75747;BME280;70632;52.232;21.038;2023-12-14T00:12:57;99241.63;;;3.16;85.54
75747;BME280;70632;52.232;21.038;2023-12-14T00:15:22;99240.97;;;3.12;85.83
75747;BME280;70632;52.232;21.038;2023-12-14T00:17:48;99237.22;;;3.15;86.02
75747;BME280;70632;52.232;21.038;2023-12-14T00:20:14;99245.84;;;3.20;84.65
75747;BME280;70632;52.232;21.038;2023-12-14T00:22:40;99251.72;;;3.25;84.98
75747;BME280;70632;52.232;21.038;2023-12-14T00:25:06;99246.16;;;3.28;84.57
75747;BME280;70632;52.232;21.038;2023-12-14T00:27:32;99251.19;;;3.33;84.50
75747;BME280;70632;52.232;21.038;2023-12-14T00:29:58;99252.81;;;3.35;84.19
75747;BME280;70632;52.232;21.038;2023-12-14T00:32:23;99260.19;;;3.32;84.26
75747;BME280;70632;52.232;21.038;2023-12-14T00:34:49;99254.19;;;3.28;84.32
75747;BME280;70632;52.232;21.038;2023-12-14T00:37:14;99263.28;;;3.26;84.27
75747;BME280;70632;52.232;21.038;2023-12-14T00:39:40;99266.19;;;3.22;84.47
75747;BME280;70632;52.232;21.038;2023-12-14T00:42:06;99270.97;;;3.17;84.51
75747;BME280;70632;52.232;21.038;2023-12-14T00:44:32;99267.53;;;3.15;85.34
75747;BME280;70632;52.232;21.038;2023-12-14T00:46:57;99265.75;;;3.16;84.72
75747;BME280;70632;52.232;21.038;2023-12-14T00:49:24;99275.47;;;3.17;85.03
75747;BME280;70632;52.232;21.038;2023-12-14T00:51:50;99271.97;;;3.16;84.16
75747;BME280;70632;52.232;21.038;2023-12-14T00:54:16;99271.63;;;3.21;83.98
75747;BME280;70632;52.232;21.038;2023-12-14T00:56:41;99279.91;;;3.18;84.37
75747;BME280;70632;52.232;21.038;2023-12-14T00:59:07;99281.59;;;3.19;84.68
75747;BME280;70632;52.232;21.038;2023-12-14T01:01:33;99281.50;;;3.20;84.40
75747;BME280;70632;52.232;21.038;2023-12-14T01:03:59;99277.84;;;3.21;84.13
75747;BME280;70632;52.232;21.038;2023-12-14T01:06:25;99289.44;;;3.22;84.20
75747;BME280;70632;52.232;21.038;2023-12-14T01:08:50;99284.19;;;3.20;84.27
75747;BME280;70632;52.232;21.038;2023-12-14T01:11:16;99278.38;;;3.14;84.22
75747;BME280;70632;52.232;21.038;2023-12-14T01:13:42;99282.66;;;3.16;84.23
75747;BME280;70632;52.232;21.038;2023-12-14T01:16:08;99290.59;;;3.18;84.19
75747;BME280;70632;52.232;21.038;2023-12-14T01:18:33;99286.09;;;3.18;84.06
75747;BME280;70632;52.232;21.038;2023-12-14T01:20:59;99291.03;;;3.12;84.43
75747;BME280;70632;52.232;21.038;2023-12-14T01:23:25;99288.53;;;3.09;84.65
75747;BME280;70632;52.232;21.038;2023-12-14T01:25:50;99285.94;;;3.07;84.91
75747;BME280;70632;52.232;21.038;2023-12-14T01:28:16;99276.22;;;3.06;84.72
75747;BME280;70632;52.232;21.038;2023-12-14T01:30:42;99275.38;;;3.06;84.92
75747;BME280;70632;52.232;21.038;2023-12-14T01:33:08;99274.94;;;3.12;84.64
75747;BME280;70632;52.232;21.038;2023-12-14T01:35:33;99270.34;;;3.14;84.54
75747;BME280;70632;52.232;21.038;2023-12-14T01:37:59;99272.81;;;3.17;84.03
75747;BME280;70632;52.232;21.038;2023-12-14T01:40:25;99268.97;;;3.21;83.94
75747;BME280;70632;52.232;21.038;2023-12-14T01:42:51;99286.00;;;3.20;83.98
75747;BME280;70632;52.232;21.038;2023-12-14T01:45:17;99285.88;;;3.21;83.64
75747;BME280;70632;52.232;21.038;2023-12-14T01:47:44;99281.41;;;3.22;83.83
75747;BME280;70632;52.232;21.038;2023-12-14T01:50:10;99275.16;;;3.21;83.99
75747;BME280;70632;52.232;21.038;2023-12-14T01:52:36;99278.50;;;3.25;83.37
75747;BME280;70632;52.232;21.038;2023-12-14T01:55:01;99280.22;;;3.26;83.63
75747;BME280;70632;52.232;21.038;2023-12-14T01:57:28;99274.88;;;3.26;83.24
75747;BME280;70632;52.232;21.038;2023-12-14T01:59:54;99276.47;;;3.29;82.90
75747;BME280;70632;52.232;21.038;2023-12-14T02:02:20;99273.38;;;3.22;83.65
75747;BME280;70632;52.232;21.038;2023-12-14T02:04:45;99275.56;;;3.15;84.11
75747;BME280;70632;52.232;21.038;2023-12-14T02:07:11;99264.34;;;3.10;84.28
75747;BME280;70632;52.232;21.038;2023-12-14T02:09:37;99263.47;;;3.10;84.66
75747;BME280;70632;52.232;21.038;2023-12-14T02:12:04;99266.44;;;3.05;84.91
75747;BME280;70632;52.232;21.038;2023-12-14T02:14:29;99257.56;;;3.05;84.90
75747;BME280;70632;52.232;21.038;2023-12-14T02:16:55;99263.22;;;3.00;85.27
75747;BME280;70632;52.232;21.038;2023-12-14T02:19:21;99258.94;;;2.97;85.24
75747;BME280;70632;52.232;21.038;2023-12-14T02:21:47;99262.78;;;2.93;85.46
75747;BME280;70632;52.232;21.038;2023-12-14T02:24:12;99263.72;;;2.92;85.73
75747;BME280;70632;52.232;21.038;2023-12-14T02:26:38;99265.66;;;2.90;85.71
75747;BME280;70632;52.232;21.038;2023-12-14T02:29:04;99262.97;;;2.90;86.42
75747;BME280;70632;52.232;21.038;2023-12-14T02:31:30;99256.47;;;2.94;86.23
75747;BME280;70632;52.232;21.038;2023-12-14T02:33:55;99261.06;;;2.92;86.22
75747;BME280;70632;52.232;21.038;2023-12-14T02:36:21;99263.63;;;2.94;86.36
75747;BME280;70632;52.232;21.038;2023-12-14T02:38:47;99268.69;;;2.98;85.88
75747;BME280;70632;52.232;21.038;2023-12-14T02:41:13;99258.53;;;3.04;85.45
75747;BME280;70632;52.232;21.038;2023-12-14T02:43:38;99260.16;;;3.06;85.54
75747;BME280;70632;52.232;21.038;2023-12-14T02:46:06;99261.00;;;3.07;85.31
75747;BME280;70632;52.232;21.038;2023-12-14T02:48:31;99260.34;;;3.03;85.25
75747;BME280;70632;52.232;21.038;2023-12-14T02:50:57;99256.16;;;2.99;85.32
75747;BME280;70632;52.232;21.038;2023-12-14T02:53:25;99263.81;;;2.91;85.57
75747;BME280;70632;52.232;21.038;2023-12-14T02:55:51;99267.56;;;2.88;85.78
75747;BME280;70632;52.232;21.038;2023-12-14T02:58:17;99267.38;;;2.91;86.15
75747;BME280;70632;52.232;21.038;2023-12-14T03:00:43;99258.38;;;2.92;85.67
75747;BME280;70632;52.232;21.038;2023-12-14T03:03:09;99259.97;;;2.95;86.21
75747;BME280;70632;52.232;21.038;2023-12-14T03:05:35;99269.94;;;2.93;85.91
75747;BME280;70632;52.232;21.038;2023-12-14T03:08:01;99272.00;;;2.89;85.88
75747;BME280;70632;52.232;21.038;2023-12-14T03:10:27;99283.44;;;2.91;85.78
75747;BME280;70632;52.232;21.038;2023-12-14T03:12:53;99285.38;;;2.89;85.79
75747;BME280;70632;52.232;21.038;2023-12-14T03:15:19;99280.97;;;2.88;85.68
75747;BME280;70632;52.232;21.038;2023-12-14T03:17:44;99291.88;;;2.85;85.88
75747;BME280;70632;52.232;21.038;2023-12-14T03:20:11;99287.69;;;2.81;85.74
75747;BME280;70632;52.232;21.038;2023-12-14T03:22:38;99293.03;;;2.81;86.08
75747;BME280;70632;52.232;21.038;2023-12-14T03:25:05;99298.28;;;2.82;86.11
75747;BME280;70632;52.232;21.038;2023-12-14T03:27:31;99304.59;;;2.81;85.92
75747;BME280;70632;52.232;21.038;2023-12-14T03:29:57;99305.56;;;2.80;86.16
75747;BME280;70632;52.232;21.038;2023-12-14T03:32:22;99307.28;;;2.81;86.54
75747;BME280;70632;52.232;21.038;2023-12-14T03:34:48;99305.28;;;2.85;85.76
75747;BME280;70632;52.232;21.038;2023-12-14T03:37:14;99309.47;;;2.89;85.88
75747;BME280;70632;52.232;21.038;2023-12-14T03:39:40;99308.84;;;2.98;84.85
75747;BME280;70632;52.232;21.038;2023-12-14T03:42:05;99309.81;;;2.97;84.87
75747;BME280;70632;52.232;21.038;2023-12-14T03:44:31;99310.22;;;2.91;84.85
75747;BME280;70632;52.232;21.038;2023-12-14T03:46:57;99312.59;;;2.96;84.62
75747;BME280;70632;52.232;21.038;2023-12-14T03:49:25;99305.63;;;2.93;84.75
75747;BME280;70632;52.232;21.038;2023-12-14T03:51:51;99309.91;;;2.96;84.94
75747;BME280;70632;52.232;21.038;2023-12-14T03:54:17;99319.00;;;2.93;84.35
75747;BME280;70632;52.232;21.038;2023-12-14T03:56:42;99316.78;;;3.00;83.97
75747;BME280;70632;52.232;21.038;2023-12-14T03:59:08;99316.03;;;2.98;84.09
75747;BME280;70632;52.232;21.038;2023-12-14T04:01:34;99318.63;;;2.99;84.07
75747;BME280;70632;52.232;21.038;2023-12-14T04:04:02;99319.88;;;2.94;84.30
75747;BME280;70632;52.232;21.038;2023-12-14T04:06:28;99320.06;;;2.91;84.63
75747;BME280;70632;52.232;21.038;2023-12-14T04:08:54;99330.13;;;2.87;84.76
75747;BME280;70632;52.232;21.038;2023-12-14T04:11:20;99327.63;;;2.84;84.62
75747;BME280;70632;52.232;21.038;2023-12-14T04:13:46;99331.38;;;2.81;84.97
75747;BME280;70632;52.232;21.038;2023-12-14T04:16:15;99330.53;;;2.81;85.21
75747;BME280;70632;52.232;21.038;2023-12-14T04:18:41;99336.72;;;2.81;84.73
75747;BME280;70632;52.232;21.038;2023-12-14T04:21:07;99339.50;;;2.80;84.73
75747;BME280;70632;52.232;21.038;2023-12-14T04:23:33;99340.47;;;2.79;85.32
75747;BME280;70632;52.232;21.038;2023-12-14T04:25:58;99326.69;;;2.85;84.42
75747;BME280;70632;52.232;21.038;2023-12-14T04:28:24;99337.94;;;2.90;84.56
75747;BME280;70632;52.232;21.038;2023-12-14T04:30:50;99341.78;;;2.86;84.09
75747;BME280;70632;52.232;21.038;2023-12-14T04:33:15;99337.41;;;2.85;84.99
75747;BME280;70632;52.232;21.038;2023-12-14T04:35:41;99339.56;;;2.93;84.55
75747;BME280;70632;52.232;21.038;2023-12-14T04:38:07;99343.13;;;2.93;84.65
75747;BME280;70632;52.232;21.038;2023-12-14T04:40:32;99341.38;;;2.92;84.08
75747;BME280;70632;52.232;21.038;2023-12-14T04:42:58;99345.56;;;2.96;84.22
75747;BME280;70632;52.232;21.038;2023-12-14T04:45:24;99350.06;;;2.96;83.56
75747;BME280;70632;52.232;21.038;2023-12-14T04:47:50;99355.53;;;2.94;83.43
75747;BME280;70632;52.232;21.038;2023-12-14T04:50:15;99364.41;;;2.95;83.45
75747;BME280;70632;52.232;21.038;2023-12-14T04:52:42;99358.41;;;2.91;83.76
75747;BME280;70632;52.232;21.038;2023-12-14T04:55:08;99355.84;;;2.90;83.64
75747;BME280;70632;52.232;21.038;2023-12-14T04:57:34;99370.38;;;2.86;84.15
75747;BME280;70632;52.232;21.038;2023-12-14T05:00:00;99373.34;;;2.81;83.39
75747;BME280;70632;52.232;21.038;2023-12-14T05:02:26;99375.28;;;2.79;84.33
75747;BME280;70632;52.232;21.038;2023-12-14T05:04:51;99375.06;;;2.82;84.27
75747;BME280;70632;52.232;21.038;2023-12-14T05:07:17;99382.31;;;2.80;84.27
75747;BME280;70632;52.232;21.038;2023-12-14T05:09:43;99385.22;;;2.77;84.40
75747;BME280;70632;52.232;21.038;2023-12-14T05:12:09;99381.19;;;2.70;84.63
75747;BME280;70632;52.232;21.038;2023-12-14T05:14:37;99384.84;;;2.69;84.56
75747;BME280;70632;52.232;21.038;2023-12-14T05:17:03;99395.34;;;2.72;84.31
75747;BME280;70632;52.232;21.038;2023-12-14T05:19:29;99400.50;;;2.75;84.49
75747;BME280;70632;52.232;21.038;2023-12-14T05:21:54;99403.19;;;2.75;84.29
75747;BME280;70632;52.232;21.038;2023-12-14T05:24:20;99407.88;;;2.71;84.47
75747;BME280;70632;52.232;21.038;2023-12-14T05:26:46;99408.94;;;2.69;84.77
75747;BME280;70632;52.232;21.038;2023-12-14T05:29:12;99418.66;;;2.70;84.72
75747;BME280;70632;52.232;21.038;2023-12-14T05:31:37;99426.00;;;2.80;84.46
75747;BME280;70632;52.232;21.038;2023-12-14T05:34:03;99424.09;;;2.82;84.30
75747;BME280;70632;52.232;21.038;2023-12-14T05:36:29;99423.53;;;2.77;84.41
75747;BME280;70632;52.232;21.038;2023-12-14T05:38:55;99422.69;;;2.77;84.80
75747;BME280;70632;52.232;21.038;2023-12-14T05:41:21;99430.91;;;2.74;84.74
75747;BME280;70632;52.232;21.038;2023-12-14T05:43:46;99440.66;;;2.75;84.41
75747;BME280;70632;52.232;21.038;2023-12-14T05:46:22;99440.66;;;2.75;84.82
75747;BME280;70632;52.232;21.038;2023-12-14T05:48:49;99446.28;;;2.70;84.57
75747;BME280;70632;52.232;21.038;2023-12-14T05:51:31;99446.41;;;2.69;85.21
75747;BME280;70632;52.232;21.038;2023-12-14T05:53:58;99451.84;;;2.67;85.28
75747;BME280;70632;52.232;21.038;2023-12-14T05:56:25;99453.75;;;2.65;85.14
75747;BME280;70632;52.232;21.038;2023-12-14T05:58:51;99461.03;;;2.63;85.41
75747;BME280;70632;52.232;21.038;2023-12-14T06:01:17;99469.03;;;2.63;85.58
75747;BME280;70632;52.232;21.038;2023-12-14T06:03:44;99472.19;;;2.70;85.00
75747;BME280;70632;52.232;21.038;2023-12-14T06:06:10;99477.00;;;2.79;85.02
75747;BME280;70632;52.232;21.038;2023-12-14T06:08:37;99474.88;;;2.84;84.30
75747;BME280;70632;52.232;21.038;2023-12-14T06:11:03;99484.91;;;2.80;84.95
75747;BME280;70632;52.232;21.038;2023-12-14T06:13:31;99483.28;;;2.78;84.80
75747;BME280;70632;52.232;21.038;2023-12-14T06:15:57;99484.25;;;2.77;85.03
75747;BME280;70632;52.232;21.038;2023-12-14T06:18:23;99492.56;;;2.72;84.93
75747;BME280;70632;52.232;21.038;2023-12-14T06:20:49;99490.75;;;2.73;85.29
75747;BME280;70632;52.232;21.038;2023-12-14T06:23:14;99496.28;;;2.70;85.55
75747;BME280;70632;52.232;21.038;2023-12-14T06:25:40;99501.72;;;2.68;84.99
75747;BME280;70632;52.232;21.038;2023-12-14T06:28:06;99499.94;;;2.69;85.45
75747;BME280;70632;52.232;21.038;2023-12-14T06:30:31;99505.00;;;2.73;85.63
75747;BME280;70632;52.232;21.038;2023-12-14T06:32:57;99505.66;;;2.77;84.65
75747;BME280;70632;52.232;21.038;2023-12-14T06:35:23;99505.47;;;2.80;84.66
75747;BME280;70632;52.232;21.038;2023-12-14T06:37:49;99505.38;;;2.81;84.31
75747;BME280;70632;52.232;21.038;2023-12-14T06:40:14;99508.06;;;2.81;85.01
75747;BME280;70632;52.232;21.038;2023-12-14T06:42:40;99515.41;;;2.78;84.43
75747;BME280;70632;52.232;21.038;2023-12-14T06:45:08;99511.19;;;2.74;84.50
75747;BME280;70632;52.232;21.038;2023-12-14T06:47:35;99511.97;;;2.76;84.84
75747;BME280;70632;52.232;21.038;2023-12-14T06:50:01;99519.31;;;2.87;83.82
75747;BME280;70632;52.232;21.038;2023-12-14T06:52:27;99521.81;;;2.90;83.69
75747;BME280;70632;52.232;21.038;2023-12-14T06:54:52;99526.13;;;2.92;83.35
75747;BME280;70632;52.232;21.038;2023-12-14T06:57:18;99534.34;;;2.89;83.79
75747;BME280;70632;52.232;21.038;2023-12-14T06:59:44;99533.38;;;2.90;83.90
75747;BME280;70632;52.232;21.038;2023-12-14T07:02:09;99533.84;;;2.82;84.22
75747;BME280;70632;52.232;21.038;2023-12-14T07:04:35;99533.22;;;2.79;83.98
75747;BME280;70632;52.232;21.038;2023-12-14T07:07:01;99542.00;;;2.81;83.64
75747;BME280;70632;52.232;21.038;2023-12-14T07:09:27;99539.59;;;2.91;82.86
75747;BME280;70632;52.232;21.038;2023-12-14T07:11:53;99543.53;;;2.99;82.07
75747;BME280;70632;52.232;21.038;2023-12-14T07:14:19;99545.44;;;2.97;82.74
75747;BME280;70632;52.232;21.038;2023-12-14T07:16:44;99544.78;;;2.94;82.96
75747;BME280;70632;52.232;21.038;2023-12-14T07:19:10;99553.56;;;2.96;82.59
75747;BME280;70632;52.232;21.038;2023-12-14T07:21:36;99544.88;;;2.92;82.88
75747;BME280;70632;52.232;21.038;2023-12-14T07:24:02;99547.06;;;2.86;82.93
75747;BME280;70632;52.232;21.038;2023-12-14T07:26:28;99547.84;;;2.88;83.41
75747;BME280;70632;52.232;21.038;2023-12-14T07:28:54;99541.91;;;2.97;81.82
75747;BME280;70632;52.232;21.038;2023-12-14T07:31:20;99556.16;;;2.97;82.30
75747;BME280;70632;52.232;21.038;2023-12-14T07:33:46;99550.03;;;2.95;82.53
75747;BME280;70632;52.232;21.038;2023-12-14T07:36:12;99554.34;;;2.98;82.71
75747;BME280;70632;52.232;21.038;2023-12-14T07:38:40;99550.31;;;2.91;82.67
75747;BME280;70632;52.232;21.038;2023-12-14T07:41:06;99561.59;;;2.81;83.26
75747;BME280;70632;52.232;21.038;2023-12-14T07:43:32;99557.47;;;2.76;83.43
75747;BME280;70632;52.232;21.038;2023-12-14T07:45:57;99552.50;;;2.70;83.78
75747;BME280;70632;52.232;21.038;2023-12-14T07:48:24;99558.03;;;2.67;84.39
75747;BME280;70632;52.232;21.038;2023-12-14T07:50:49;99555.53;;;2.64;84.00
75747;BME280;70632;52.232;21.038;2023-12-14T07:53:15;99559.28;;;2.61;84.09
75747;BME280;70632;52.232;21.038;2023-12-14T07:55:41;99568.25;;;2.60;84.30
75747;BME280;70632;52.232;21.038;2023-12-14T07:58:07;99567.31;;;2.61;84.81
75747;BME280;70632;52.232;21.038;2023-12-14T08:00:33;99576.94;;;2.64;84.22
75747;BME280;70632;52.232;21.038;2023-12-14T08:02:59;99579.94;;;2.73;84.69
75747;BME280;70632;52.232;21.038;2023-12-14T08:05:24;99582.25;;;2.79;83.91
75747;BME280;70632;52.232;21.038;2023-12-14T08:07:50;99593.50;;;2.85;83.98
75747;BME280;70632;52.232;21.038;2023-12-14T08:10:18;99597.09;;;2.85;83.93
75747;BME280;70632;52.232;21.038;2023-12-14T08:12:45;99598.03;;;2.84;83.26
75747;BME280;70632;52.232;21.038;2023-12-14T08:15:12;99609.69;;;2.83;83.35
75747;BME280;70632;52.232;21.038;2023-12-14T08:17:38;99596.31;;;2.83;83.57
75747;BME280;70632;52.232;21.038;2023-12-14T08:20:04;99598.69;;;2.88;83.14
75747;BME280;70632;52.232;21.038;2023-12-14T08:22:34;99604.75;;;2.91;83.04
75747;BME280;70632;52.232;21.038;2023-12-14T08:25:00;99607.13;;;2.96;83.02
75747;BME280;70632;52.232;21.038;2023-12-14T08:27:26;99609.72;;;2.97;82.99
75747;BME280;70632;52.232;21.038;2023-12-14T08:29:52;99618.53;;;2.99;82.68
75747;BME280;70632;52.232;21.038;2023-12-14T08:32:18;99623.13;;;3.12;81.00
75747;BME280;70632;52.232;21.038;2023-12-14T08:34:43;99630.78;;;3.18;80.55
75747;BME280;70632;52.232;21.038;2023-12-14T08:37:09;99632.88;;;3.27;79.43
75747;BME280;70632;52.232;21.038;2023-12-14T08:39:35;99632.59;;;3.32;79.44
75747;BME280;70632;52.232;21.038;2023-12-14T08:42:01;99633.84;;;3.40;79.15
75747;BME280;70632;52.232;21.038;2023-12-14T08:44:26;99639.84;;;3.44;78.92
75747;BME280;70632;52.232;21.038;2023-12-14T08:46:52;99642.75;;;3.41;79.85
75747;BME280;70632;52.232;21.038;2023-12-14T08:49:18;99648.00;;;3.28;80.29
75747;BME280;70632;52.232;21.038;2023-12-14T08:51:44;99654.41;;;3.26;80.83
75747;BME280;70632;52.232;21.038;2023-12-14T08:54:09;99658.34;;;3.20;81.13
75747;BME280;70632;52.232;21.038;2023-12-14T08:56:35;99660.91;;;3.21;81.04
75747;BME280;70632;52.232;21.038;2023-12-14T08:59:01;99659.75;;;3.26;81.05
75747;BME280;70632;52.232;21.038;2023-12-14T09:01:29;99658.81;;;3.27;81.38
75747;BME280;70632;52.232;21.038;2023-12-14T09:03:55;99665.50;;;3.19;81.37
75747;BME280;70632;52.232;21.038;2023-12-14T09:06:21;99670.19;;;3.16;81.62
75747;BME280;70632;52.232;21.038;2023-12-14T09:08:46;99679.66;;;3.21;81.58
75747;BME280;70632;52.232;21.038;2023-12-14T09:11:12;99670.75;;;3.21;81.11
75747;BME280;70632;52.232;21.038;2023-12-14T09:13:40;99677.84;;;3.22;81.11
75747;BME280;70632;52.232;21.038;2023-12-14T09:16:06;99678.03;;;3.19;81.42
75747;BME280;70632;52.232;21.038;2023-12-14T09:18:32;99678.72;;;3.22;81.08
75747;BME280;70632;52.232;21.038;2023-12-14T09:20:58;99684.94;;;3.23;81.23
75747;BME280;70632;52.232;21.038;2023-12-14T09:23:24;99680.34;;;3.25;80.67
75747;BME280;70632;52.232;21.038;2023-12-14T09:25:50;99688.19;;;3.28;80.76
75747;BME280;70632;52.232;21.038;2023-12-14T09:28:15;99692.50;;;3.31;80.34
75747;BME280;70632;52.232;21.038;2023-12-14T09:30:41;99694.03;;;3.35;80.47
75747;BME280;70632;52.232;21.038;2023-12-14T09:33:07;99694.97;;;3.34;80.61
75747;BME280;70632;52.232;21.038;2023-12-14T09:35:37;99696.63;;;3.36;80.20
75747;BME280;70632;52.232;21.038;2023-12-14T09:38:03;99698.34;;;3.37;79.62
75747;BME280;70632;52.232;21.038;2023-12-14T09:40:30;99702.94;;;3.35;80.11
75747;BME280;70632;52.232;21.038;2023-12-14T09:42:55;99704.00;;;3.33;80.54
75747;BME280;70632;52.232;21.038;2023-12-14T09:45:24;99694.41;;;3.29;80.19
75747;BME280;70632;52.232;21.038;2023-12-14T09:47:53;99700.63;;;3.29;80.31
75747;BME280;70632;52.232;21.038;2023-12-14T09:50:20;99695.66;;;3.37;79.71
75747;BME280;70632;52.232;21.038;2023-12-14T09:52:46;99692.22;;;3.35;79.53
75747;BME280;70632;52.232;21.038;2023-12-14T09:55:15;99705.44;;;3.38;79.84
75747;BME280;70632;52.232;21.038;2023-12-14T09:57:40;99693.66;;;3.41;79.22
75747;BME280;70632;52.232;21.038;2023-12-14T10:00:07;99702.63;;;3.40;78.94
75747;BME280;70632;52.232;21.038;2023-12-14T10:02:36;99699.19;;;3.38;79.02
75747;BME280;70632;52.232;21.038;2023-12-14T10:05:03;99692.41;;;3.32;79.75
75747;BME280;70632;52.232;21.038;2023-12-14T10:07:30;99692.97;;;3.37;79.48
75747;BME280;70632;52.232;21.038;2023-12-14T10:10:10;99700.47;;;3.47;79.36
75747;BME280;70632;52.232;21.038;2023-12-14T10:12:51;99691.16;;;3.52;79.43
75747;BME280;70632;52.232;21.038;2023-12-14T10:15:17;99692.44;;;3.61;78.74
75747;BME280;70632;52.232;21.038;2023-12-14T10:17:43;99691.66;;;3.59;78.90
75747;BME280;70632;52.232;21.038;2023-12-14T10:20:09;99697.97;;;3.58;78.71
75747;BME280;70632;52.232;21.038;2023-12-14T10:22:38;99688.78;;;3.62;78.43
75747;BME280;70632;52.232;21.038;2023-12-14T10:25:04;99701.31;;;3.61;78.80
75747;BME280;70632;52.232;21.038;2023-12-14T10:27:31;99704.84;;;3.62;78.93
75747;BME280;70632;52.232;21.038;2023-12-14T10:29:57;99709.28;;;3.63;79.19
75747;BME280;70632;52.232;21.038;2023-12-14T10:32:26;99708.13;;;3.67;78.36
75747;BME280;70632;52.232;21.038;2023-12-14T10:34:52;99712.13;;;3.74;77.85
75747;BME280;70632;52.232;21.038;2023-12-14T10:37:18;99715.78;;;3.73;78.53
75747;BME280;70632;52.232;21.038;2023-12-14T10:39:46;99718.66;;;3.70;78.49
75747;BME280;70632;52.232;21.038;2023-12-14T10:42:13;99718.25;;;3.62;79.11
75747;BME280;70632;52.232;21.038;2023-12-14T10:44:39;99725.16;;;3.52;79.47
75747;BME280;70632;52.232;21.038;2023-12-14T10:47:06;99723.84;;;3.59;78.49
75747;BME280;70632;52.232;21.038;2023-12-14T10:49:34;99723.53;;;3.63;77.86
75747;BME280;70632;52.232;21.038;2023-12-14T10:52:01;99732.72;;;3.59;78.64
75747;BME280;70632;52.232;21.038;2023-12-14T10:54:32;99726.28;;;3.48;78.94
75747;BME280;70632;52.232;21.038;2023-12-14T10:57:00;99734.13;;;3.36;79.55
75747;BME280;70632;52.232;21.038;2023-12-14T10:59:26;99735.53;;;3.28;79.81
75747;BME280;70632;52.232;21.038;2023-12-14T11:01:53;99740.72;;;3.31;79.60
75747;BME280;70632;52.232;21.038;2023-12-14T11:04:21;99743.97;;;3.36;78.97
75747;BME280;70632;52.232;21.038;2023-12-14T11:06:47;99740.84;;;3.43;78.50
75747;BME280;70632;52.232;21.038;2023-12-14T11:09:17;99742.38;;;3.48;78.47
75747;BME280;70632;52.232;21.038;2023-12-14T11:14:24;99743.91;;;3.52;78.48
75747;BME280;70632;52.232;21.038;2023-12-14T11:16:54;99752.56;;;3.57;77.41
75747;BME280;70632;52.232;21.038;2023-12-14T11:24:19;99762.75;;;3.50;78.10
75747;BME280;70632;52.232;21.038;2023-12-14T11:26:44;99765.28;;;3.53;77.69
75747;BME280;70632;52.232;21.038;2023-12-14T11:29:11;99773.88;;;3.58;77.69
75747;BME280;70632;52.232;21.038;2023-12-14T11:31:37;99775.53;;;3.61;77.48
75747;BME280;70632;52.232;21.038;2023-12-14T11:34:03;99774.66;;;3.60;78.10
75747;BME280;70632;52.232;21.038;2023-12-14T11:36:33;99780.00;;;3.60;77.64
75747;BME280;70632;52.232;21.038;2023-12-14T11:38:59;99773.63;;;3.63;77.65
75747;BME280;70632;52.232;21.038;2023-12-14T11:41:24;99775.31;;;3.64;77.39
75747;BME280;70632;52.232;21.038;2023-12-14T11:43:55;99781.53;;;3.65;77.90
75747;BME280;70632;52.232;21.038;2023-12-14T11:46:20;99780.69;;;3.64;77.94
75747;BME280;70632;52.232;21.038;2023-12-14T11:48:47;99783.94;;;3.55;78.54
75747;BME280;70632;52.232;21.038;2023-12-14T11:51:17;99787.66;;;3.52;79.11
75747;BME280;70632;52.232;21.038;2023-12-14T11:53:46;99788.53;;;3.53;79.31
75747;BME280;70632;52.232;21.038;2023-12-14T11:56:14;99790.25;;;3.54;78.96
75747;BME280;70632;52.232;21.038;2023-12-14T11:58:43;99789.00;;;3.45;79.75
75747;BME280;70632;52.232;21.038;2023-12-14T12:01:17;99789.28;;;3.40;79.65
75747;BME280;70632;52.232;21.038;2023-12-14T12:03:44;99794.63;;;3.40;79.96
75747;BME280;70632;52.232;21.038;2023-12-14T12:06:24;99790.22;;;3.39;79.99
75747;BME280;70632;52.232;21.038;2023-12-14T12:08:51;99795.16;;;3.31;80.27
75747;BME280;70632;52.232;21.038;2023-12-14T12:11:19;99802.34;;;3.31;80.17
75747;BME280;70632;52.232;21.038;2023-12-14T12:13:53;99800.59;;;3.30;80.35
75747;BME280;70632;52.232;21.038;2023-12-14T12:16:19;99808.00;;;3.26;80.69
75747;BME280;70632;52.232;21.038;2023-12-14T12:18:45;99809.38;;;3.17;81.24
75747;BME280;70632;52.232;21.038;2023-12-14T12:21:11;99818.88;;;3.23;80.48
75747;BME280;70632;52.232;21.038;2023-12-14T12:23:37;99821.09;;;3.31;79.85
75747;BME280;70632;52.232;21.038;2023-12-14T12:26:04;99814.63;;;3.35;80.52
75747;BME280;70632;52.232;21.038;2023-12-14T12:28:31;99816.06;;;3.40;79.94
75747;BME280;70632;52.232;21.038;2023-12-14T12:30:57;99818.28;;;3.48;79.52
75747;BME280;70632;52.232;21.038;2023-12-14T12:33:23;99821.91;;;3.47;79.37
75747;BME280;70632;52.232;21.038;2023-12-14T12:35:49;99822.78;;;3.48;80.08
75747;BME280;70632;52.232;21.038;2023-12-14T12:38:15;99824.53;;;3.49;79.71
75747;BME280;70632;52.232;21.038;2023-12-14T12:40:42;99824.53;;;3.49;79.64
75747;BME280;70632;52.232;21.038;2023-12-14T12:43:08;99828.06;;;3.49;79.36
75747;BME280;70632;52.232;21.038;2023-12-14T12:45:34;99832.56;;;3.49;79.67
75747;BME280;70632;52.232;21.038;2023-12-14T12:48:01;99838.94;;;3.46;79.55
75747;BME280;70632;52.232;21.038;2023-12-14T12:50:29;99838.44;;;3.39;79.79
75747;BME280;70632;52.232;21.038;2023-12-14T12:52:55;99845.34;;;3.43;79.58
75747;BME280;70632;52.232;21.038;2023-12-14T12:55:21;99840.59;;;3.49;79.15
75747;BME280;70632;52.232;21.038;2023-12-14T12:57:48;99838.84;;;3.48;79.22
75747;BME280;70632;52.232;21.038;2023-12-14T13:00:14;99842.50;;;3.47;78.70
75747;BME280;70632;52.232;21.038;2023-12-14T13:02:41;99843.72;;;3.41;79.11